Time;durP1;ratioP1;P1;durP2;ratioP2;P2;SDS_P1;SDS_P2;PMS_P1;PMS_P2;Temp;Humidity;BMP_temperature;BMP_pressure;BME280_temperature;BME280_humidity;BME280_pressure;Samples;Min_cycle;Max_cycle;Signal;HPM_P1;HPM_P2
2023/04/29 00:01:37;;;;;;;9.07;5.55;;;;;;;4.17;93.23;100840.16;4942063;28;20047;-60
2023/04/29 00:04:08;;;;;;;6.40;4.72;;;;;;;4.15;92.40;100841.84;4942849;28;20079;-59
2023/04/29 00:06:41;;;;;;;7.22;4.68;;;;;;;4.20;92.62;100850.56;4938679;28;20461;-59
2023/04/29 00:09:13;;;;;;;10.18;5.20;;;;;;;4.26;92.37;100845.47;4942447;28;20051;-59
2023/04/29 00:11:46;;;;;;;7.70;4.72;;;;;;;4.29;92.04;100845.56;4943142;28;20928;-59
2023/04/29 00:14:17;;;;;;;9.52;4.93;;;;;;;4.37;92.59;100843.09;4928676;28;20052;-60
2023/04/29 00:16:50;;;;;;;11.30;5.75;;;;;;;4.41;92.12;100838.84;4927255;28;20054;-59
2023/04/29 00:19:22;;;;;;;8.30;5.28;;;;;;;4.44;92.10;100833.72;4932306;28;20063;-59
2023/04/29 00:21:54;;;;;;;11.43;5.13;;;;;;;4.61;92.87;100827.13;4942762;28;20039;-59
2023/04/29 00:24:28;;;;;;;7.57;5.15;;;;;;;4.72;91.71;100820.41;4941985;28;20039;-59
2023/04/29 00:27:00;;;;;;;10.30;6.60;;;;;;;4.83;91.83;100830.06;4939259;28;20049;-60
2023/04/29 00:29:31;;;;;;;10.07;6.05;;;;;;;4.89;91.31;100823.28;4943401;28;20082;-58
2023/04/29 00:32:04;;;;;;;8.05;5.88;;;;;;;4.92;90.88;100819.88;4942793;28;20122;-59
2023/04/29 00:34:36;;;;;;;9.50;6.10;;;;;;;4.99;91.15;100824.28;4942102;28;20587;-60
2023/04/29 00:37:07;;;;;;;13.93;8.18;;;;;;;5.14;91.63;100821.94;4939677;28;20060;-59
2023/04/29 00:39:39;;;;;;;10.38;6.60;;;;;;;5.30;91.69;100814.38;4942516;28;20059;-59
2023/04/29 00:42:11;;;;;;;12.13;7.88;;;;;;;5.39;91.74;100806.72;4934392;28;20048;-59
2023/04/29 00:44:43;;;;;;;10.02;6.38;;;;;;;5.50;91.82;100812.06;4942045;28;20093;-59
2023/04/29 00:47:16;;;;;;;9.70;7.18;;;;;;;5.50;91.36;100810.31;4944418;28;20051;-59
2023/04/29 00:49:47;;;;;;;12.95;8.65;;;;;;;5.54;91.56;100808.63;4946489;28;20035;-59
2023/04/29 00:52:20;;;;;;;12.10;7.53;;;;;;;5.33;91.69;100772.94;4946348;28;20053;-59
2023/04/29 00:54:53;;;;;;;14.48;8.68;;;;;;;5.67;91.78;100810.53;4936749;28;20470;-59
2023/04/29 00:57:27;;;;;;;13.60;8.02;;;;;;;5.85;91.86;100817.66;4946216;28;20063;-59
2023/04/29 01:00:00;;;;;;;12.57;8.60;;;;;;;5.99;92.25;100817.84;4929517;28;20052;-60
2023/04/29 01:02:34;;;;;;;12.98;8.38;;;;;;;6.08;91.54;100806.72;4917576;28;20496;-59
2023/04/29 01:05:06;;;;;;;9.77;6.75;;;;;;;6.04;91.31;100811.88;4940093;28;20043;-58
2023/04/29 01:07:46;;;;;;;9.13;7.30;;;;;;;6.11;91.13;100806.75;4945481;28;20159;-60
2023/04/29 01:10:27;;;;;;;9.70;6.45;;;;;;;6.29;90.42;100806.94;4935886;28;20108;-59
2023/04/29 01:13:08;;;;;;;10.90;7.38;;;;;;;6.23;89.98;100801.69;4932490;28;20053;-57
2023/04/29 01:15:48;;;;;;;13.65;7.93;;;;;;;6.21;89.77;100808.56;4937393;28;20748;-59
2023/04/29 01:18:27;;;;;;;10.43;7.68;;;;;;;6.23;89.75;100812.06;4941627;28;20143;-59
2023/04/29 01:21:00;;;;;;;9.18;7.25;;;;;;;6.32;90.37;100806.09;4943246;28;20066;-59
2023/04/29 01:23:34;;;;;;;12.60;7.93;;;;;;;6.39;90.26;100808.78;4935741;28;20435;-60
2023/04/29 01:26:07;;;;;;;10.38;6.82;;;;;;;6.42;89.91;100803.59;4955207;28;20167;-59
2023/04/29 01:28:49;;;;;;;8.57;6.00;;;;;;;6.45;89.76;100808.81;4945228;28;20059;-59
2023/04/29 01:31:26;;;;;;;8.93;6.25;;;;;;;6.46;89.20;100792.41;4939367;28;20106;-56
2023/04/29 01:34:09;;;;;;;7.75;6.28;;;;;;;6.54;89.46;100788.97;4945575;28;20055;-60
2023/04/29 01:36:54;;;;;;;7.32;5.50;;;;;;;6.57;89.00;100791.63;4936995;28;20078;-58
2023/04/29 01:39:34;;;;;;;7.68;5.45;;;;;;;6.64;88.95;100798.56;4933958;28;20062;-59
2023/04/29 01:42:16;;;;;;;8.50;5.55;;;;;;;6.77;89.58;100784.00;4919637;28;20142;-60
2023/04/29 01:44:54;;;;;;;5.82;4.70;;;;;;;6.85;88.74;100777.13;4923965;28;20449;-58
2023/04/29 01:47:28;;;;;;;7.55;4.70;;;;;;;6.96;88.48;100774.56;4923402;28;20147;-58
2023/04/29 01:50:01;;;;;;;8.80;4.40;;;;;;;7.12;88.20;100773.81;4926921;28;20095;-58
2023/04/29 01:52:32;;;;;;;5.07;3.97;;;;;;;7.20;87.76;100772.13;4919142;28;20490;-58
2023/04/29 01:55:09;;;;;;;6.30;4.32;;;;;;;7.20;87.44;100761.75;4927553;28;20137;-58
2023/04/29 01:57:41;;;;;;;5.43;4.22;;;;;;;7.33;86.85;100755.72;4906011;28;20048;-58
2023/04/29 02:00:14;;;;;;;5.68;3.90;;;;;;;7.49;86.19;100755.81;4916597;28;20048;-56
2023/04/29 02:02:46;;;;;;;7.30;4.55;;;;;;;7.61;85.87;100766.25;4930965;28;20367;-59
2023/04/29 02:05:17;;;;;;;7.47;3.38;;;;;;;7.66;85.11;100759.34;4949281;28;20079;-60
2023/04/29 02:07:49;;;;;;;4.07;2.70;;;;;;;7.63;84.38;100754.13;4949453;28;20052;-58
2023/04/29 02:10:22;;;;;;;5.45;3.70;;;;;;;7.74;84.34;100752.44;4929582;28;20065;-59
2023/04/29 02:12:54;;;;;;;1.80;1.55;;;;;;;7.71;82.11;100747.22;4923995;28;20044;-58
2023/04/29 02:15:28;;;;;;;2.78;1.40;;;;;;;7.62;81.63;100742.00;4916241;28;20069;-59
2023/04/29 02:18:00;;;;;;;0.93;0.80;;;;;;;7.57;81.20;100743.72;4942691;28;20120;-58
2023/04/29 02:20:32;;;;;;;1.33;1.10;;;;;;;7.49;80.46;100729.81;4914633;28;20056;-59
2023/04/29 02:23:03;;;;;;;2.33;1.60;;;;;;;7.42;79.76;100723.72;4931963;28;20048;-60
2023/04/29 02:25:37;;;;;;;1.27;1.13;;;;;;;7.38;80.85;100726.28;4933048;28;20109;-60
2023/04/29 02:28:08;;;;;;;2.42;2.00;;;;;;;7.32;80.00;100730.59;4913910;28;20135;-61
2023/04/29 02:30:39;;;;;;;2.25;1.63;;;;;;;7.35;81.02;100730.63;4899285;28;20064;-58
2023/04/29 02:33:09;;;;;;;1.27;1.00;;;;;;;7.33;79.95;100729.72;4920907;28;20435;-59
2023/04/29 02:35:40;;;;;;;3.17;2.58;;;;;;;6.80;79.92;100631.63;4919073;28;20064;-60
2023/04/29 02:38:10;;;;;;;0.75;0.75;;;;;;;7.16;80.21;100679.41;4917022;28;20048;-60
2023/04/29 02:40:46;;;;;;;1.00;0.90;;;;;;;7.42;80.14;100712.47;4917252;28;20082;-59
2023/04/29 02:43:17;;;;;;;8.60;5.22;;;;;;;7.49;79.70;100719.41;4915418;28;20052;-60
2023/04/29 02:45:47;;;;;;;3.70;2.78;;;;;;;7.66;79.56;100711.66;4913302;28;20280;-60
2023/04/29 02:48:18;;;;;;;1.95;1.75;;;;;;;7.84;78.63;100705.63;4916461;28;20306;-59
2023/04/29 02:50:49;;;;;;;2.17;1.50;;;;;;;7.86;77.18;100696.97;4897317;28;20042;-59
2023/04/29 02:53:19;;;;;;;2.88;2.30;;;;;;;7.85;77.71;100686.56;4921678;28;20064;-60
2023/04/29 02:55:56;;;;;;;2.45;1.75;;;;;;;7.69;76.74;100689.13;4915836;28;20064;-60
2023/04/29 02:58:30;;;;;;;4.10;2.10;;;;;;;7.74;77.99;100683.94;4914727;28;20060;-59
2023/04/29 03:01:03;;;;;;;3.08;2.20;;;;;;;7.93;78.32;100679.63;4902698;28;20056;-61
2023/04/29 03:03:35;;;;;;;3.75;2.72;;;;;;;8.12;78.82;100676.16;4913227;28;20472;-61
2023/04/29 03:06:06;;;;;;;4.07;1.98;;;;;;;8.20;77.44;100671.81;4912046;28;20048;-60
2023/04/29 03:08:38;;;;;;;5.97;3.97;;;;;;;8.41;77.83;100662.28;4913447;28;20044;-60
2023/04/29 03:11:11;;;;;;;14.48;5.85;;;;;;;8.52;77.94;100660.56;4912378;28;20141;-59
2023/04/29 03:13:42;;;;;;;2.35;1.67;;;;;;;8.72;78.52;100657.03;4913439;28;20044;-60
2023/04/29 03:16:15;;;;;;;2.35;1.00;;;;;;;8.70;76.24;100650.97;4915772;28;20047;-61
2023/04/29 03:18:46;;;;;;;1.05;1.02;;;;;;;8.82;75.57;100653.53;4914046;28;20443;-61
2023/04/29 03:21:17;;;;;;;1.80;1.40;;;;;;;8.88;73.49;100653.50;4914492;28;20048;-59
2023/04/29 03:23:48;;;;;;;1.33;1.00;;;;;;;9.10;73.35;100653.44;4916882;28;20048;-59
2023/04/29 03:26:21;;;;;;;1.08;0.98;;;;;;;8.87;70.40;100662.22;4920297;28;20068;-60
2023/04/29 03:28:52;;;;;;;1.10;1.00;;;;;;;8.68;70.16;100650.09;4928297;28;20048;-60
2023/04/29 03:31:23;;;;;;;3.08;2.38;;;;;;;8.51;70.60;100653.63;4927580;28;20051;-59
2023/04/29 03:33:56;;;;;;;4.43;3.08;;;;;;;8.52;71.92;100649.28;4928176;28;20056;-60
2023/04/29 03:36:27;;;;;;;5.05;2.50;;;;;;;8.43;72.53;100642.31;4921220;28;20778;-61
2023/04/29 03:38:58;;;;;;;3.72;2.33;;;;;;;8.58;73.64;100655.31;4918496;28;20116;-61
2023/04/29 03:41:30;;;;;;;4.32;3.20;;;;;;;8.66;74.95;100657.91;4935551;28;25421;-60
2023/04/29 03:44:01;;;;;;;3.38;2.25;;;;;;;8.67;74.16;100648.38;4923291;28;20056;-61
2023/04/29 03:46:31;;;;;;;3.15;2.20;;;;;;;8.69;74.51;100651.84;4931816;28;20407;-58
2023/04/29 03:49:02;;;;;;;2.10;1.42;;;;;;;8.67;72.68;100653.59;4931255;28;20106;-56
2023/04/29 03:51:33;;;;;;;1.50;1.10;;;;;;;8.42;70.76;100640.59;4934579;28;20229;-61
2023/04/29 03:54:04;;;;;;;1.55;1.30;;;;;;;8.31;70.05;100644.91;4934418;28;20127;-61
2023/04/29 03:56:36;;;;;;;1.48;1.23;;;;;;;8.16;71.36;100646.69;4937756;28;20062;-59
2023/04/29 03:59:06;;;;;;;1.20;1.10;;;;;;;8.06;70.66;100633.66;4938649;28;20402;-59
2023/04/29 04:01:37;;;;;;;1.35;1.10;;;;;;;7.60;69.87;100633.63;4935877;28;20087;-60
2023/04/29 04:04:08;;;;;;;1.30;1.20;;;;;;;7.65;71.39;100643.16;4936693;28;20057;-59
2023/04/29 04:06:38;;;;;;;1.60;1.50;;;;;;;7.76;73.36;100641.47;4937846;28;20045;-60
2023/04/29 04:09:09;;;;;;;1.60;1.27;;;;;;;7.97;72.57;100634.53;4930672;28;20059;-60
2023/04/29 04:11:41;;;;;;;1.83;1.30;;;;;;;8.25;73.16;100639.72;4941666;28;20052;-61
2023/04/29 04:14:12;;;;;;;1.67;1.30;;;;;;;8.29;72.25;100625.84;4939146;28;20063;-60
2023/04/29 04:16:42;;;;;;;1.73;1.27;;;;;;;8.29;70.82;100612.81;4937433;28;20832;-60
2023/04/29 04:19:13;;;;;;;2.10;1.40;;;;;;;8.48;69.73;100627.56;4935811;28;20112;-59
2023/04/29 04:21:44;;;;;;;1.80;1.40;;;;;;;8.39;69.46;100622.34;4936440;28;20062;-60
2023/04/29 04:24:16;;;;;;;1.92;1.42;;;;;;;8.47;70.86;100624.97;4938982;28;20047;-60
2023/04/29 04:26:48;;;;;;;2.47;1.60;;;;;;;8.42;69.64;100611.97;4937648;28;20058;-60
2023/04/29 04:29:19;;;;;;;2.38;1.30;;;;;;;8.48;70.12;100622.34;4931704;28;20049;-60
2023/04/29 04:31:50;;;;;;;2.40;1.40;;;;;;;8.64;70.66;100618.84;4942247;28;20059;-60
2023/04/29 04:34:21;;;;;;;1.85;1.45;;;;;;;8.94;70.81;100611.81;4937693;28;20060;-60
2023/04/29 04:36:52;;;;;;;1.55;1.25;;;;;;;8.90;69.13;100570.13;4936863;28;20052;-60
2023/04/29 04:39:22;;;;;;;1.40;1.30;;;;;;;9.18;69.41;100589.94;4936403;28;20051;-60
2023/04/29 04:41:54;;;;;;;2.90;1.88;;;;;;;9.34;69.02;100601.19;4939078;28;20052;-59
2023/04/29 04:44:29;;;;;;;1.80;1.35;;;;;;;9.31;68.21;100596.00;4917520;28;20132;-60
2023/04/29 04:47:00;;;;;;;2.78;1.88;;;;;;;9.29;68.44;100592.50;4927327;28;20048;-60
2023/04/29 04:49:30;;;;;;;1.60;1.33;;;;;;;9.29;67.81;100587.28;4934524;28;20106;-57
2023/04/29 04:52:01;;;;;;;2.40;1.55;;;;;;;9.26;67.51;100587.28;4933941;28;20479;-57
2023/04/29 04:54:32;;;;;;;2.67;1.90;;;;;;;9.12;67.35;100589.13;4933904;28;20044;-58
2023/04/29 04:57:04;;;;;;;1.92;1.65;;;;;;;9.18;67.88;100581.25;4933068;28;20533;-57
2023/04/29 04:59:38;;;;;;;1.52;1.35;;;;;;;9.10;67.00;100575.22;4936510;28;20047;-57
2023/04/29 05:02:09;;;;;;;1.48;1.20;;;;;;;9.04;67.76;100581.34;4923740;28;20654;-57
2023/04/29 05:04:39;;;;;;;1.48;1.38;;;;;;;9.14;68.46;100569.13;4947744;28;20057;-58
2023/04/29 05:07:10;;;;;;;6.32;4.95;;;;;;;9.16;67.70;100570.88;4946315;28;20048;-58
2023/04/29 05:09:40;;;;;;;5.93;4.78;;;;;;;8.97;68.25;100544.03;4940812;28;20491;-59
2023/04/29 05:12:13;;;;;;;4.05;2.92;;;;;;;9.27;68.50;100568.19;4942750;28;20354;-59
2023/04/29 05:14:43;;;;;;;6.53;4.95;;;;;;;9.10;66.76;100560.44;4937300;28;20089;-59
2023/04/29 05:17:14;;;;;;;1.52;1.30;;;;;;;8.92;67.37;100561.41;4934612;28;20390;-59
2023/04/29 05:19:45;;;;;;;1.95;1.60;;;;;;;8.77;68.20;100551.06;4937293;28;20768;-59
2023/04/29 05:22:15;;;;;;;1.45;1.27;;;;;;;8.74;67.87;100556.31;4936247;28;20062;-58
2023/04/29 05:24:47;;;;;;;3.45;1.75;;;;;;;8.64;68.54;100561.53;4921705;28;20059;-58
2023/04/29 05:27:19;;;;;;;2.25;1.50;;;;;;;8.64;67.53;100556.34;4934405;28;21257;-58
2023/04/29 05:29:50;;;;;;;2.28;1.45;;;;;;;8.49;68.26;100556.38;4929996;28;20129;-57
2023/04/29 05:32:21;;;;;;;2.50;1.60;;;;;;;8.40;68.87;100553.81;4938002;28;21468;-58
2023/04/29 05:34:51;;;;;;;1.50;1.20;;;;;;;8.41;68.72;100545.09;4938980;28;20086;-58
2023/04/29 05:37:22;;;;;;;2.00;1.50;;;;;;;8.40;69.50;100541.63;4938455;28;20070;-58
2023/04/29 05:39:53;;;;;;;1.90;1.48;;;;;;;8.45;69.07;100544.25;4938442;28;20055;-58
2023/04/29 05:42:26;;;;;;;3.08;1.30;;;;;;;8.51;69.45;100539.03;4937811;28;20074;-58
2023/04/29 05:44:56;;;;;;;1.83;1.40;;;;;;;8.40;69.14;100523.41;4937856;28;20055;-58
2023/04/29 05:47:27;;;;;;;1.70;1.40;;;;;;;8.45;68.93;100539.03;4938047;28;20052;-58
2023/04/29 05:49:57;;;;;;;2.25;1.65;;;;;;;8.45;69.34;100533.81;4941045;28;20066;-58
2023/04/29 05:52:28;;;;;;;1.58;1.40;;;;;;;8.38;69.05;100526.88;4932014;28;20115;-58
2023/04/29 05:54:59;;;;;;;2.92;1.70;;;;;;;8.37;70.29;100530.34;4937320;28;20057;-56
2023/04/29 05:57:31;;;;;;;2.33;1.70;;;;;;;8.47;70.33;100526.88;4944132;28;20082;-58
2023/04/29 06:00:03;;;;;;;2.28;1.52;;;;;;;8.53;70.13;100499.94;4936798;28;20059;-58
2023/04/29 06:02:33;;;;;;;2.13;1.38;;;;;;;8.74;70.15;100501.59;4938146;28;20047;-58
2023/04/29 06:05:13;;;;;;;1.73;1.58;;;;;;;8.85;69.76;100512.81;4927383;28;21109;-58
2023/04/29 06:07:45;;;;;;;2.38;1.92;;;;;;;8.97;70.34;100502.31;4936839;28;20043;-58
2023/04/29 06:10:16;;;;;;;5.18;2.15;;;;;;;9.02;70.74;100505.75;4937498;28;20502;-58
2023/04/29 06:12:50;;;;;;;3.58;2.20;;;;;;;9.14;71.01;100503.97;4940116;28;20130;-58
2023/04/29 06:15:21;;;;;;;5.40;3.95;;;;;;;8.99;70.29;100458.88;4927519;28;20049;-58
2023/04/29 06:17:52;;;;;;;3.60;2.70;;;;;;;9.17;70.25;100498.72;4941666;28;20769;-58
2023/04/29 06:20:23;;;;;;;3.70;2.80;;;;;;;9.16;70.49;100491.75;4940292;28;20056;-58
2023/04/29 06:22:53;;;;;;;2.80;2.38;;;;;;;9.23;70.30;100493.44;4939530;28;20089;-57
2023/04/29 06:25:24;;;;;;;4.68;2.70;;;;;;;9.03;69.60;100491.84;4939589;28;20090;-58
2023/04/29 06:27:58;;;;;;;3.75;2.00;;;;;;;9.02;69.98;100502.28;4940944;28;20139;-58
2023/04/29 06:30:29;;;;;;;4.60;3.10;;;;;;;8.99;69.79;100499.72;4939097;28;20057;-55
2023/04/29 06:32:59;;;;;;;6.18;3.40;;;;;;;8.88;70.18;100507.56;4945972;28;20053;-57
2023/04/29 06:35:30;;;;;;;4.97;2.55;;;;;;;8.65;70.54;100473.84;4945182;28;20368;-58
2023/04/29 06:38:01;;;;;;;3.78;2.75;;;;;;;8.88;70.39;100506.72;4940630;28;20087;-58
2023/04/29 06:40:31;;;;;;;5.45;2.65;;;;;;;8.91;70.97;100512.78;4938956;28;20055;-58
2023/04/29 06:43:03;;;;;;;3.58;2.60;;;;;;;8.94;70.87;100511.91;4940190;28;20059;-58
2023/04/29 06:45:34;;;;;;;4.65;3.17;;;;;;;9.00;70.68;100507.50;4940589;28;20056;-58
2023/04/29 06:48:05;;;;;;;5.35;2.40;;;;;;;9.01;71.07;100488.41;4918972;28;20064;-58
2023/04/29 06:50:36;;;;;;;4.30;3.22;;;;;;;9.02;70.26;100484.91;4935811;28;20059;-58
2023/04/29 06:53:09;;;;;;;5.55;2.92;;;;;;;9.04;70.58;100493.59;4940754;28;20071;-58
2023/04/29 06:55:40;;;;;;;5.70;3.20;;;;;;;9.09;70.93;100490.09;4930403;28;20057;-58
2023/04/29 06:58:12;;;;;;;6.13;3.15;;;;;;;9.09;69.63;100500.53;4937051;28;20044;-57
2023/04/29 07:00:46;;;;;;;4.38;3.17;;;;;;;8.96;69.73;100458.91;4935524;28;20775;-58
2023/04/29 07:03:17;;;;;;;6.63;3.35;;;;;;;9.07;69.62;100498.78;4935827;28;20052;-58
2023/04/29 07:05:48;;;;;;;6.22;3.22;;;;;;;9.01;69.66;100484.91;4937413;28;20105;-58
2023/04/29 07:08:18;;;;;;;6.93;3.20;;;;;;;8.97;70.50;100486.69;4936070;28;20047;-58
2023/04/29 07:10:56;;;;;;;4.95;2.92;;;;;;;9.02;69.80;100482.31;4932050;28;20056;-57
2023/04/29 07:13:29;;;;;;;5.53;3.63;;;;;;;8.90;70.07;100479.78;4939373;28;20055;-58
2023/04/29 07:15:59;;;;;;;36.40;15.52;;;;;;;8.84;70.61;100474.59;4934502;28;20049;-57
2023/04/29 07:18:30;;;;;;;7.47;3.90;;;;;;;8.82;70.81;100471.13;4942557;28;20057;-58
2023/04/29 07:21:03;;;;;;;4.25;3.30;;;;;;;8.82;70.17;100469.41;4941725;28;20065;-57
2023/04/29 07:23:33;;;;;;;5.68;3.58;;;;;;;8.72;70.78;100475.53;4938745;28;20074;-58
2023/04/29 07:26:11;;;;;;;5.90;3.58;;;;;;;8.64;71.14;100466.91;4937020;28;20465;-59
2023/04/29 07:28:44;;;;;;;4.65;3.58;;;;;;;8.62;71.77;100472.09;4930213;28;20070;-58
2023/04/29 07:31:15;;;;;;;6.38;3.28;;;;;;;8.46;71.97;100467.84;4938882;28;20057;-58
2023/04/29 07:33:48;;;;;;;4.68;3.25;;;;;;;8.37;71.72;100478.28;4937763;28;20055;-57
2023/04/29 07:36:19;;;;;;;5.00;3.42;;;;;;;8.33;72.23;100469.59;4934864;28;20060;-57
2023/04/29 07:38:50;;;;;;;4.45;3.13;;;;;;;8.26;72.04;100472.22;4942927;28;20055;-58
2023/04/29 07:41:21;;;;;;;3.88;3.20;;;;;;;8.17;72.42;100470.53;4936068;28;20051;-58
2023/04/29 07:43:53;;;;;;;4.97;3.67;;;;;;;7.93;72.71;100466.25;4935710;28;20052;-57
2023/04/29 07:46:24;;;;;;;8.18;3.75;;;;;;;7.82;73.19;100460.22;4935005;28;20062;-58
2023/04/29 07:48:55;;;;;;;7.63;4.10;;;;;;;7.86;74.13;100459.31;4934546;28;20075;-57
2023/04/29 07:51:27;;;;;;;19.50;8.93;;;;;;;7.76;73.85;100454.16;4936497;28;20039;-57
2023/04/29 07:53:58;;;;;;;11.73;4.00;;;;;;;7.59;73.87;100455.03;4927202;28;20104;-57
2023/04/29 07:56:29;;;;;;;15.05;3.78;;;;;;;7.31;74.00;100445.53;4931547;28;21279;-57
2023/04/29 07:59:03;;;;;;;11.00;4.25;;;;;;;7.04;75.54;100448.09;4939589;28;20048;-57
2023/04/29 08:01:33;;;;;;;9.35;3.80;;;;;;;6.86;76.31;100452.44;4934411;28;20052;-57
2023/04/29 08:04:04;;;;;;;12.02;4.47;;;;;;;6.72;76.87;100454.13;4926569;28;20051;-57
2023/04/29 08:06:37;;;;;;;9.48;4.13;;;;;;;6.73;77.12;100460.19;4922806;28;20044;-60
2023/04/29 08:09:08;;;;;;;9.88;4.63;;;;;;;6.66;77.89;100459.28;4936437;28;20043;-57
2023/04/29 08:11:38;;;;;;;10.77;4.05;;;;;;;6.62;78.47;100457.56;4939750;28;20052;-57
2023/04/29 08:14:11;;;;;;;8.57;4.25;;;;;;;6.45;78.21;100455.78;4932256;28;20071;-57
2023/04/29 08:16:41;;;;;;;6.10;4.22;;;;;;;6.38;78.57;100459.19;4935242;28;20074;-57
2023/04/29 08:19:12;;;;;;;10.32;3.55;;;;;;;6.31;78.63;100467.81;4932835;28;20055;-57
2023/04/29 08:21:43;;;;;;;9.20;4.05;;;;;;;6.29;79.42;100482.53;4935268;28;20050;-58
2023/04/29 08:24:14;;;;;;;9.43;3.75;;;;;;;6.23;78.70;100470.38;4935715;28;20048;-57
2023/04/29 08:26:44;;;;;;;8.15;3.50;;;;;;;6.20;79.74;100469.53;4935432;28;20044;-58
2023/04/29 08:29:17;;;;;;;10.20;3.75;;;;;;;6.15;79.53;100466.91;4934136;28;20052;-58
2023/04/29 08:31:47;;;;;;;13.07;4.30;;;;;;;6.31;80.23;100467.81;4935221;28;20066;-58
2023/04/29 08:34:18;;;;;;;11.93;3.97;;;;;;;6.62;78.32;100467.97;4933980;28;20471;-58
2023/04/29 08:36:48;;;;;;;14.15;4.15;;;;;;;6.43;78.26;100465.28;4923267;28;21037;-58
2023/04/29 08:39:19;;;;;;;10.98;4.45;;;;;;;6.36;79.23;100466.09;4941866;28;20064;-57
2023/04/29 08:41:50;;;;;;;10.15;4.22;;;;;;;6.39;79.59;100468.75;4939559;28;21858;-58
2023/04/29 08:44:23;;;;;;;6.35;3.60;;;;;;;6.40;78.94;100461.81;4932232;28;20059;-58
2023/04/29 08:46:54;;;;;;;29.20;4.75;;;;;;;6.21;79.18;100446.16;4934288;28;20066;-57
2023/04/29 08:49:25;;;;;;;9.98;4.10;;;;;;;6.28;79.30;100457.44;4934496;28;20052;-57
2023/04/29 08:51:55;;;;;;;6.03;3.17;;;;;;;6.27;79.26;100455.72;4935102;28;20054;-60
2023/04/29 08:54:27;;;;;;;12.60;4.55;;;;;;;6.22;79.62;100452.22;4934678;28;20079;-57
2023/04/29 08:56:59;;;;;;;7.88;3.10;;;;;;;6.14;79.34;100453.91;4934653;28;20071;-57
2023/04/29 08:59:32;;;;;;;6.85;3.60;;;;;;;5.95;79.36;100448.63;4927602;28;20041;-57
2023/04/29 09:02:06;;;;;;;8.25;3.00;;;;;;;5.99;80.22;100454.69;4934273;28;20093;-58
2023/04/29 09:04:48;;;;;;;5.82;3.47;;;;;;;5.95;80.52;100459.00;4929136;28;20421;-57
2023/04/29 09:07:32;;;;;;;6.95;3.20;;;;;;;6.08;79.64;100459.06;4930566;28;20164;-58
2023/04/29 09:10:06;;;;;;;7.07;3.10;;;;;;;5.86;79.06;100438.16;4927848;28;20052;-60
2023/04/29 09:12:44;;;;;;;9.95;4.15;;;;;;;5.98;80.10;100464.22;4925052;28;20063;-58
2023/04/29 09:15:20;;;;;;;7.85;3.03;;;;;;;5.95;80.06;100459.00;4927882;28;21492;-57
2023/04/29 09:17:50;;;;;;;9.80;3.42;;;;;;;5.76;79.75;100447.63;4910231;28;20090;-57
2023/04/29 09:20:28;;;;;;;7.50;3.58;;;;;;;5.79;79.93;100458.03;4919968;28;20060;-57
2023/04/29 09:23:05;;;;;;;8.93;3.40;;;;;;;5.78;80.10;100447.63;4915564;28;20052;-57
2023/04/29 09:25:36;;;;;;;6.97;3.33;;;;;;;5.82;80.13;100457.19;4925594;28;20059;-57
2023/04/29 09:31:42;;;;;;;10.30;3.25;;;;;;;5.62;80.34;100429.41;4918852;28;20039;-57
2023/04/29 09:34:15;;;;;;;7.53;3.53;;;;;;;5.74;80.33;100448.47;4926416;28;20142;-58
2023/04/29 09:36:47;;;;;;;7.72;4.03;;;;;;;5.47;80.10;100405.97;4934630;28;20051;-57
2023/04/29 09:39:25;;;;;;;9.90;3.58;;;;;;;5.54;80.22;100436.25;4922362;28;20047;-58
2023/04/29 09:42:01;;;;;;;9.23;3.58;;;;;;;5.52;80.68;100427.59;4936600;28;20060;-57
2023/04/29 09:44:35;;;;;;;10.18;3.90;;;;;;;5.54;80.50;100436.25;4927395;28;20087;-57
2023/04/29 09:47:10;;;;;;;7.95;3.58;;;;;;;5.43;80.96;100417.16;4937934;28;20405;-57
2023/04/29 09:49:43;;;;;;;7.78;4.15;;;;;;;5.44;81.16;100429.25;4911702;28;20052;-57
2023/04/29 09:52:19;;;;;;;7.28;3.80;;;;;;;5.25;81.35;100402.34;4928411;28;20052;-57
2023/04/29 09:54:50;;;;;;;9.13;3.13;;;;;;;5.39;80.60;100436.13;4922709;28;20057;-56
2023/04/29 09:57:24;;;;;;;7.63;3.30;;;;;;;5.10;80.75;100402.25;4919132;28;20055;-57
2023/04/29 09:59:55;;;;;;;7.72;3.45;;;;;;;5.14;80.87;100422.13;4937752;28;20056;-57
2023/04/29 10:02:28;;;;;;;9.85;4.25;;;;;;;4.97;81.56;100411.63;4937647;28;20056;-58
2023/04/29 10:05:00;;;;;;;9.77;4.32;;;;;;;4.49;81.29;100348.19;4934886;28;20094;-57
2023/04/29 10:07:35;;;;;;;10.88;3.95;;;;;;;4.70;81.71;100444.16;4936762;28;20565;-57
2023/04/29 10:10:10;;;;;;;12.73;4.25;;;;;;;4.41;82.99;100437.81;4937705;28;20051;-57
2023/04/29 10:12:43;;;;;;;11.65;4.60;;;;;;;4.33;83.80;100464.44;4929490;28;20467;-58
2023/04/29 10:15:21;;;;;;;9.00;3.97;;;;;;;4.30;83.85;100448.91;4932301;28;20062;-58
2023/04/29 10:18:00;;;;;;;9.65;3.85;;;;;;;4.05;84.10;100427.03;4927095;28;20141;-57
2023/04/29 10:20:32;;;;;;;7.85;4.20;;;;;;;3.67;84.34;100395.53;4906048;28;20048;-57
2023/04/29 10:23:07;;;;;;;15.93;4.90;;;;;;;3.92;85.49;100460.44;4935690;28;20051;-57
2023/04/29 10:25:39;;;;;;;12.23;4.30;;;;;;;3.76;85.85;100457.66;4923349;28;20080;-57
2023/04/29 10:28:15;;;;;;;12.68;4.82;;;;;;;3.63;86.96;100459.19;4924690;28;21366;-57
2023/04/29 10:30:46;;;;;;;12.18;4.00;;;;;;;3.51;87.54;100468.47;4938672;28;20048;-60
2023/04/29 10:33:19;;;;;;;15.00;4.57;;;;;;;3.36;88.41;100467.38;4928888;28;20048;-60
2023/04/29 10:35:55;;;;;;;12.85;4.43;;;;;;;3.23;88.65;100468.91;4921347;28;20080;-58
2023/04/29 10:38:31;;;;;;;13.60;5.30;;;;;;;3.19;89.68;100461.06;4937142;28;20051;-60
2023/04/29 10:41:09;;;;;;;15.48;5.13;;;;;;;3.11;89.77;100473.00;4908251;28;20978;-60
2023/04/29 10:43:40;;;;;;;12.60;5.63;;;;;;;2.92;89.90;100480.41;4913977;28;20056;-58
2023/04/29 10:46:28;;;;;;;13.60;4.95;;;;;;;2.80;90.47;100477.63;4919430;28;20045;-57
2023/04/29 10:49:03;;;;;;;19.38;5.85;;;;;;;2.48;90.98;100449.47;4907952;28;20060;-58
2023/04/29 10:51:34;;;;;;;23.20;5.22;;;;;;;2.59;91.47;100472.91;4919197;28;20580;-57
2023/04/29 10:54:09;;;;;;;12.75;5.18;;;;;;;2.59;91.71;100478.91;4952832;28;20071;-57
2023/04/29 10:56:42;;;;;;;22.35;6.50;;;;;;;2.54;91.60;100485.69;4926379;28;20052;-56
2023/04/29 10:59:14;;;;;;;14.00;4.80;;;;;;;2.26;92.53;100462.78;4934108;28;20063;-56
2023/04/29 11:01:47;;;;;;;10.57;4.82;;;;;;;2.43;92.16;100494.94;4920025;28;20517;-59
2023/04/29 11:04:21;;;;;;;12.45;4.88;;;;;;;2.42;92.76;100490.66;4914599;28;20051;-58
2023/04/29 11:06:54;;;;;;;14.75;4.28;;;;;;;2.34;92.29;100493.03;4904969;28;20121;-57
2023/04/29 11:09:27;;;;;;;22.17;5.55;;;;;;;2.13;92.99;100457.38;4914003;28;20107;-56
2023/04/29 11:12:04;;;;;;;18.02;6.32;;;;;;;2.22;92.70;100460.97;4914508;28;20131;-56
2023/04/29 11:14:37;;;;;;;17.38;5.63;;;;;;;2.30;92.98;100474.91;4904867;28;20127;-57
2023/04/29 11:17:14;;;;;;;19.10;6.13;;;;;;;2.46;92.29;100497.59;4929736;28;20403;-56
2023/04/29 11:19:51;;;;;;;17.80;6.28;;;;;;;2.15;92.23;100442.81;4919485;28;20048;-56
2023/04/29 11:22:32;;;;;;;20.08;6.65;;;;;;;2.31;92.28;100474.94;4919193;28;20128;-57
2023/04/29 11:25:04;;;;;;;17.30;5.90;;;;;;;2.27;92.10;100480.00;4919140;28;20113;-56
2023/04/29 11:27:36;;;;;;;24.00;7.78;;;;;;;2.20;92.48;100484.16;4913311;28;20098;-56
2023/04/29 11:30:11;;;;;;;23.70;7.05;;;;;;;2.10;92.80;100489.97;4907129;28;20072;-56
2023/04/29 11:32:43;;;;;;;32.33;8.40;;;;;;;2.03;92.72;100476.06;4924398;28;20044;-57
2023/04/29 11:35:16;;;;;;;24.75;6.47;;;;;;;1.90;93.01;100484.38;4929363;28;20139;-56
2023/04/29 11:37:48;;;;;;;27.50;7.18;;;;;;;1.80;93.40;100472.09;4925521;28;20051;-56
2023/04/29 11:40:21;;;;;;;21.45;6.55;;;;;;;1.69;93.58;100485.59;4919495;28;20235;-55
2023/04/29 11:42:51;;;;;;;26.73;7.70;;;;;;;1.65;94.05;100478.66;4930285;28;20048;-56
2023/04/29 11:45:22;;;;;;;28.65;7.78;;;;;;;1.66;94.18;100475.25;4929203;28;20055;-56
2023/04/29 11:47:52;;;;;;;22.67;7.13;;;;;;;1.60;94.19;100459.66;4930659;28;20792;-56
2023/04/29 11:50:26;;;;;;;17.40;6.93;;;;;;;1.57;94.53;100458.69;4913686;28;20689;-56
2023/04/29 11:53:00;;;;;;;26.23;7.63;;;;;;;1.51;94.58;100449.13;4930329;28;20063;-57
2023/04/29 11:55:30;;;;;;;27.67;7.30;;;;;;;1.52;95.23;100445.72;4911576;28;20107;-57
2023/04/29 11:58:01;;;;;;;18.45;7.70;;;;;;;1.51;95.47;100443.97;4922539;28;20124;-56
2023/04/29 12:00:32;;;;;;;24.55;7.18;;;;;;;1.28;95.16;100416.00;4930630;28;20072;-57